Geneseo, Illinois
Current Conditions -  °F | °C
As of 8:52 PM on Friday 21 Nov 2014 (Local Time) from KMLI Reporting Station
Overcast Overcast  
Wind Chill: 30°   Ceiling: 2300
Heat Index: 36°   Visibility: 10mi
Dew Point: 15°   Wind: 7mph
Humidity: 43%   Direction: 170°S
Pressure: 30.16"   Gusts: NA
Location:  41.45°N, 90.16°W
Report Text: KMLI 220252Z 17006KT 10SM OVC023 02/M09 A3016 RMK AO2 SLP222 T00221094 56023
Loading
Personal Weather Stations






























Interactive Weather Map New forecast layout! Learn more

10-Day Weather Forecast

Advertisements
Track Severe Weather on mobile